sensor_id;sensor_type;location;lat;lon;timestamp;temperature;humidity
65064;DHT22;51654;51.452;6.644;2023-01-25T04:42:22;-1.10;74.60
65064;DHT22;51654;51.452;6.644;2023-01-25T04:44:53;-1.10;74.40
65064;DHT22;51654;51.452;6.644;2023-01-25T04:47:20;-1.10;74.30
65064;DHT22;51654;51.452;6.644;2023-01-25T04:49:47;-1.10;74.30
65064;DHT22;51654;51.452;6.644;2023-01-25T04:52:17;-1.00;74.30
65064;DHT22;51654;51.452;6.644;2023-01-25T04:54:44;-1.00;74.30
65064;DHT22;51654;51.452;6.644;2023-01-25T04:57:11;-1.00;74.30
65064;DHT22;51654;51.452;6.644;2023-01-25T04:59:42;-0.90;74.20
65064;DHT22;51654;51.452;6.644;2023-01-25T05:02:09;-0.90;74.00
65064;DHT22;51654;51.452;6.644;2023-01-25T05:04:38;-0.90;74.00
65064;DHT22;51654;51.452;6.644;2023-01-25T05:07:05;-0.90;73.90
65064;DHT22;51654;51.452;6.644;2023-01-25T05:09:31;-0.80;73.90
65064;DHT22;51654;51.452;6.644;2023-01-25T05:11:58;-0.80;73.90
65064;DHT22;51654;51.452;6.644;2023-01-25T05:14:37;-0.80;73.80
65064;DHT22;51654;51.452;6.644;2023-01-25T05:17:06;-0.80;73.60
65064;DHT22;51654;51.452;6.644;2023-01-25T05:19:35;-0.90;73.50
65064;DHT22;51654;51.452;6.644;2023-01-25T05:22:04;-1.00;74.00
65064;DHT22;51654;51.452;6.644;2023-01-25T05:24:43;-1.00;74.10
65064;DHT22;51654;51.452;6.644;2023-01-25T05:27:16;-1.10;74.20
65064;DHT22;51654;51.452;6.644;2023-01-25T05:30:07;-1.00;74.70
65064;DHT22;51654;51.452;6.644;2023-01-25T05:32:39;-0.90;74.90
65064;DHT22;51654;51.452;6.644;2023-01-25T05:35:07;-0.90;75.00
65064;DHT22;51654;51.452;6.644;2023-01-25T05:37:34;-0.80;75.00
65064;DHT22;51654;51.452;6.644;2023-01-25T05:40:05;-0.80;75.00
65064;DHT22;51654;51.452;6.644;2023-01-25T05:42:36;-0.80;74.90
65064;DHT22;51654;51.452;6.644;2023-01-25T05:45:07;-0.70;74.80
65064;DHT22;51654;51.452;6.644;2023-01-25T05:47:36;-0.70;74.60
65064;DHT22;51654;51.452;6.644;2023-01-25T05:50:04;-0.70;74.70
65064;DHT22;51654;51.452;6.644;2023-01-25T05:52:49;-0.70;74.60
65064;DHT22;51654;51.452;6.644;2023-01-25T05:55:17;-0.70;74.40
65064;DHT22;51654;51.452;6.644;2023-01-25T05:57:43;-0.70;74.40
65064;DHT22;51654;51.452;6.644;2023-01-25T06:00:11;-0.60;74.40
65064;DHT22;51654;51.452;6.644;2023-01-25T06:02:41;-0.60;74.40
65064;DHT22;51654;51.452;6.644;2023-01-25T06:05:15;-0.60;74.30
65064;DHT22;51654;51.452;6.644;2023-01-25T06:07:42;-0.60;74.00
65064;DHT22;51654;51.452;6.644;2023-01-25T06:10:10;-0.80;73.40
65064;DHT22;51654;51.452;6.644;2023-01-25T06:12:37;-0.90;73.20
65064;DHT22;51654;51.452;6.644;2023-01-25T06:15:06;-1.00;73.60
65064;DHT22;51654;51.452;6.644;2023-01-25T06:17:33;-1.00;73.80
65064;DHT22;51654;51.452;6.644;2023-01-25T06:20:19;-1.00;73.80
65064;DHT22;51654;51.452;6.644;2023-01-25T06:23:03;-0.90;73.90
65064;DHT22;51654;51.452;6.644;2023-01-25T06:25:30;-0.90;74.10
65064;DHT22;51654;51.452;6.644;2023-01-25T06:27:57;-0.80;74.30
65064;DHT22;51654;51.452;6.644;2023-01-25T06:30:24;-0.80;74.30
65064;DHT22;51654;51.452;6.644;2023-01-25T06:32:51;-0.90;73.90
65064;DHT22;51654;51.452;6.644;2023-01-25T06:35:18;-0.90;73.80
65064;DHT22;51654;51.452;6.644;2023-01-25T06:37:45;-1.00;73.90
65064;DHT22;51654;51.452;6.644;2023-01-25T06:40:12;-0.90;74.00
65064;DHT22;51654;51.452;6.644;2023-01-25T06:42:39;-0.90;74.20
65064;DHT22;51654;51.452;6.644;2023-01-25T06:45:06;-0.90;74.20
65064;DHT22;51654;51.452;6.644;2023-01-25T06:47:34;-0.80;74.30
65064;DHT22;51654;51.452;6.644;2023-01-25T06:50:01;-0.80;74.50
65064;DHT22;51654;51.452;6.644;2023-01-25T06:52:27;-0.70;74.90
65064;DHT22;51654;51.452;6.644;2023-01-25T06:54:56;-0.70;75.10
65064;DHT22;51654;51.452;6.644;2023-01-25T06:57:23;-0.70;75.10
65064;DHT22;51654;51.452;6.644;2023-01-25T06:59:50;-0.60;75.00
65064;DHT22;51654;51.452;6.644;2023-01-25T07:02:16;-0.60;75.00
65064;DHT22;51654;51.452;6.644;2023-01-25T07:04:43;-0.60;75.00
65064;DHT22;51654;51.452;6.644;2023-01-25T07:07:10;-0.60;74.60
65064;DHT22;51654;51.452;6.644;2023-01-25T07:09:37;-0.70;74.30
65064;DHT22;51654;51.452;6.644;2023-01-25T07:12:04;-0.70;74.20
65064;DHT22;51654;51.452;6.644;2023-01-25T07:14:31;-0.70;74.10
65064;DHT22;51654;51.452;6.644;2023-01-25T07:16:58;-0.80;73.90
65064;DHT22;51654;51.452;6.644;2023-01-25T07:19:28;-0.80;73.70
65064;DHT22;51654;51.452;6.644;2023-01-25T07:21:55;-0.80;73.70
65064;DHT22;51654;51.452;6.644;2023-01-25T07:24:22;-0.80;73.80
65064;DHT22;51654;51.452;6.644;2023-01-25T07:26:52;-0.80;73.80
65064;DHT22;51654;51.452;6.644;2023-01-25T07:29:20;-0.80;73.70
65064;DHT22;51654;51.452;6.644;2023-01-25T07:31:47;-0.80;73.90
65064;DHT22;51654;51.452;6.644;2023-01-25T07:34:14;-0.70;73.80
65064;DHT22;51654;51.452;6.644;2023-01-25T07:36:41;-0.70;73.80
65064;DHT22;51654;51.452;6.644;2023-01-25T07:39:12;-0.80;73.70
65064;DHT22;51654;51.452;6.644;2023-01-25T07:41:39;-0.70;73.60
65064;DHT22;51654;51.452;6.644;2023-01-25T07:44:11;-0.70;73.60
65064;DHT22;51654;51.452;6.644;2023-01-25T07:46:43;-0.70;73.70
65064;DHT22;51654;51.452;6.644;2023-01-25T07:49:10;-0.70;73.80
65064;DHT22;51654;51.452;6.644;2023-01-25T07:51:37;-0.70;73.70
65064;DHT22;51654;51.452;6.644;2023-01-25T07:54:04;-0.70;73.50
65064;DHT22;51654;51.452;6.644;2023-01-25T07:56:33;-0.70;73.40
65064;DHT22;51654;51.452;6.644;2023-01-25T07:59:01;-0.70;73.40
65064;DHT22;51654;51.452;6.644;2023-01-25T08:01:30;-0.80;73.50
65064;DHT22;51654;51.452;6.644;2023-01-25T08:04:00;-0.70;73.50
65064;DHT22;51654;51.452;6.644;2023-01-25T08:06:33;-0.70;73.50
65064;DHT22;51654;51.452;6.644;2023-01-25T08:09:09;-0.70;73.50
65064;DHT22;51654;51.452;6.644;2023-01-25T08:11:37;-0.70;73.50
65064;DHT22;51654;51.452;6.644;2023-01-25T08:14:04;-0.70;73.30
65064;DHT22;51654;51.452;6.644;2023-01-25T08:16:31;-0.70;73.20
65064;DHT22;51654;51.452;6.644;2023-01-25T08:19:00;-0.70;73.30
65064;DHT22;51654;51.452;6.644;2023-01-25T08:21:29;-0.70;73.20
65064;DHT22;51654;51.452;6.644;2023-01-25T08:23:58;-0.70;73.20
65064;DHT22;51654;51.452;6.644;2023-01-25T08:26:26;-0.70;73.30
65064;DHT22;51654;51.452;6.644;2023-01-25T08:28:54;-0.70;73.30
65064;DHT22;51654;51.452;6.644;2023-01-25T08:31:24;-0.70;73.40
65064;DHT22;51654;51.452;6.644;2023-01-25T08:33:52;-0.60;73.40
65064;DHT22;51654;51.452;6.644;2023-01-25T08:36:19;-0.70;73.30
65064;DHT22;51654;51.452;6.644;2023-01-25T08:38:47;-0.70;73.30
65064;DHT22;51654;51.452;6.644;2023-01-25T08:41:16;-0.60;73.30
65064;DHT22;51654;51.452;6.644;2023-01-25T08:43:44;-0.60;73.40
65064;DHT22;51654;51.452;6.644;2023-01-25T08:46:14;-0.60;73.50
65064;DHT22;51654;51.452;6.644;2023-01-25T08:48:41;-0.60;73.60
65064;DHT22;51654;51.452;6.644;2023-01-25T08:51:10;-0.60;73.40
65064;DHT22;51654;51.452;6.644;2023-01-25T08:53:38;-0.60;73.60
65064;DHT22;51654;51.452;6.644;2023-01-25T08:56:07;-0.60;73.70
65064;DHT22;51654;51.452;6.644;2023-01-25T08:58:37;-0.60;73.60
65064;DHT22;51654;51.452;6.644;2023-01-25T09:01:06;-0.60;73.50
65064;DHT22;51654;51.452;6.644;2023-01-25T09:03:41;-0.60;73.60
65064;DHT22;51654;51.452;6.644;2023-01-25T09:06:09;-0.60;73.50
65064;DHT22;51654;51.452;6.644;2023-01-25T09:08:37;-0.60;73.30
65064;DHT22;51654;51.452;6.644;2023-01-25T09:11:07;-0.70;73.20
65064;DHT22;51654;51.452;6.644;2023-01-25T09:13:34;-0.70;73.00
65064;DHT22;51654;51.452;6.644;2023-01-25T09:16:06;-0.80;73.00
65064;DHT22;51654;51.452;6.644;2023-01-25T09:18:35;-0.90;72.80
65064;DHT22;51654;51.452;6.644;2023-01-25T09:21:07;-1.00;72.90
65064;DHT22;51654;51.452;6.644;2023-01-25T09:23:34;-1.10;73.20
65064;DHT22;51654;51.452;6.644;2023-01-25T09:26:21;-1.10;73.40
65064;DHT22;51654;51.452;6.644;2023-01-25T09:28:50;-1.10;73.50
65064;DHT22;51654;51.452;6.644;2023-01-25T09:31:18;-1.00;73.50
65064;DHT22;51654;51.452;6.644;2023-01-25T09:34:13;-1.00;73.50
65064;DHT22;51654;51.452;6.644;2023-01-25T09:36:40;-1.00;73.60
65064;DHT22;51654;51.452;6.644;2023-01-25T09:39:08;-1.00;73.40
65064;DHT22;51654;51.452;6.644;2023-01-25T09:46:50;-0.90;73.40
65064;DHT22;51654;51.452;6.644;2023-01-25T09:54:36;-0.80;73.30
65064;DHT22;51654;51.452;6.644;2023-01-25T09:57:17;-0.80;73.40
65064;DHT22;51654;51.452;6.644;2023-01-25T09:59:44;-0.70;73.40
65064;DHT22;51654;51.452;6.644;2023-01-25T10:02:46;-0.60;73.40
65064;DHT22;51654;51.452;6.644;2023-01-25T10:05:18;-0.60;73.40
65064;DHT22;51654;51.452;6.644;2023-01-25T10:08:01;-0.50;73.30
65064;DHT22;51654;51.452;6.644;2023-01-25T10:10:39;-0.50;73.20
65064;DHT22;51654;51.452;6.644;2023-01-25T10:13:11;-0.50;73.10
65064;DHT22;51654;51.452;6.644;2023-01-25T10:15:38;-0.40;73.10
65064;DHT22;51654;51.452;6.644;2023-01-25T10:23:44;-0.30;73.10
65064;DHT22;51654;51.452;6.644;2023-01-25T10:26:26;-0.30;73.10
65064;DHT22;51654;51.452;6.644;2023-01-25T10:29:08;-0.20;73.20
65064;DHT22;51654;51.452;6.644;2023-01-25T10:32:12;-0.20;73.50
65064;DHT22;51654;51.452;6.644;2023-01-25T10:34:53;-0.10;73.60
65064;DHT22;51654;51.452;6.644;2023-01-25T10:37:31;-0.20;73.50
65064;DHT22;51654;51.452;6.644;2023-01-25T10:40:18;-0.10;73.20
65064;DHT22;51654;51.452;6.644;2023-01-25T10:42:55;-0.20;73.30
65064;DHT22;51654;51.452;6.644;2023-01-25T10:45:24;-0.20;72.60
65064;DHT22;51654;51.452;6.644;2023-01-25T10:47:55;-0.40;71.90
65064;DHT22;51654;51.452;6.644;2023-01-25T10:58:42;-0.90;72.00
65064;DHT22;51654;51.452;6.644;2023-01-25T11:01:24;-0.80;72.80
65064;DHT22;51654;51.452;6.644;2023-01-25T11:03:52;-0.60;73.40
65064;DHT22;51654;51.452;6.644;2023-01-25T11:06:33;-0.50;73.80
65064;DHT22;51654;51.452;6.644;2023-01-25T11:09:29;-0.50;73.60
65064;DHT22;51654;51.452;6.644;2023-01-25T11:14:25;-0.40;73.20
65064;DHT22;51654;51.452;6.644;2023-01-25T11:16:53;-0.40;72.80
65064;DHT22;51654;51.452;6.644;2023-01-25T11:19:26;-0.40;72.70
65064;DHT22;51654;51.452;6.644;2023-01-25T11:21:54;-0.40;72.70
65064;DHT22;51654;51.452;6.644;2023-01-25T11:24:21;-0.30;72.60
65064;DHT22;51654;51.452;6.644;2023-01-25T11:26:51;-0.30;72.50
65064;DHT22;51654;51.452;6.644;2023-01-25T11:29:36;-0.40;72.30
65064;DHT22;51654;51.452;6.644;2023-01-25T11:32:04;-0.30;72.00
65064;DHT22;51654;51.452;6.644;2023-01-25T11:34:35;-0.40;71.40
65064;DHT22;51654;51.452;6.644;2023-01-25T11:42:16;-0.50;71.90
65064;DHT22;51654;51.452;6.644;2023-01-25T11:47:42;-0.40;72.00
65064;DHT22;51654;51.452;6.644;2023-01-25T11:50:20;-0.40;71.80
65064;DHT22;51654;51.452;6.644;2023-01-25T11:52:54;-0.40;71.80
65064;DHT22;51654;51.452;6.644;2023-01-25T11:55:28;-0.40;71.70
65064;DHT22;51654;51.452;6.644;2023-01-25T12:00:55;-0.40;71.70
65064;DHT22;51654;51.452;6.644;2023-01-25T12:14:10;-0.70;71.40
65064;DHT22;51654;51.452;6.644;2023-01-25T12:16:45;-0.80;71.10
65064;DHT22;51654;51.452;6.644;2023-01-25T12:19:37;-1.00;71.50
65064;DHT22;51654;51.452;6.644;2023-01-25T12:22:20;-1.00;71.90
65064;DHT22;51654;51.452;6.644;2023-01-25T12:27:37;-1.00;72.20
65064;DHT22;51654;51.452;6.644;2023-01-25T12:30:14;-1.00;72.40
65064;DHT22;51654;51.452;6.644;2023-01-25T12:32:44;-0.90;72.50
65064;DHT22;51654;51.452;6.644;2023-01-25T12:35:28;-0.90;72.70
65064;DHT22;51654;51.452;6.644;2023-01-25T12:37:58;-0.90;72.80
65064;DHT22;51654;51.452;6.644;2023-01-25T12:43:14;-0.70;72.70
65064;DHT22;51654;51.452;6.644;2023-01-25T12:45:42;-0.70;72.60
65064;DHT22;51654;51.452;6.644;2023-01-25T12:48:20;-0.60;72.60
65064;DHT22;51654;51.452;6.644;2023-01-25T12:50:51;-0.60;72.40
65064;DHT22;51654;51.452;6.644;2023-01-25T12:53:23;-0.60;72.10
65064;DHT22;51654;51.452;6.644;2023-01-25T12:55:51;-0.70;72.10
65064;DHT22;51654;51.452;6.644;2023-01-25T13:03:49;-0.80;72.60
65064;DHT22;51654;51.452;6.644;2023-01-25T13:11:19;-0.70;72.50
65064;DHT22;51654;51.452;6.644;2023-01-25T13:13:47;-0.70;72.30
65064;DHT22;51654;51.452;6.644;2023-01-25T13:18:56;-0.70;72.60
65064;DHT22;51654;51.452;6.644;2023-01-25T13:24:10;-0.60;72.30
65064;DHT22;51654;51.452;6.644;2023-01-25T13:31:59;-0.80;72.50
65064;DHT22;51654;51.452;6.644;2023-01-25T13:42:21;-1.00;72.90
65064;DHT22;51654;51.452;6.644;2023-01-25T13:44:52;-1.00;73.00
65064;DHT22;51654;51.452;6.644;2023-01-25T13:47:41;-1.00;73.60
65064;DHT22;51654;51.452;6.644;2023-01-25T13:50:08;-1.00;74.00
65064;DHT22;51654;51.452;6.644;2023-01-25T13:52:54;-1.00;73.70
65064;DHT22;51654;51.452;6.644;2023-01-25T13:55:21;-1.00;73.80
65064;DHT22;51654;51.452;6.644;2023-01-25T13:57:48;-0.90;74.40
65064;DHT22;51654;51.452;6.644;2023-01-25T14:00:17;-0.80;74.70
65064;DHT22;51654;51.452;6.644;2023-01-25T14:02:44;-0.70;74.90
65064;DHT22;51654;51.452;6.644;2023-01-25T14:05:19;-0.60;74.70
65064;DHT22;51654;51.452;6.644;2023-01-25T14:07:46;-0.70;73.80
65064;DHT22;51654;51.452;6.644;2023-01-25T14:10:18;-0.70;73.70
65064;DHT22;51654;51.452;6.644;2023-01-25T14:12:49;-0.80;73.40
65064;DHT22;51654;51.452;6.644;2023-01-25T14:15:21;-0.80;73.50
65064;DHT22;51654;51.452;6.644;2023-01-25T14:20:34;-0.80;73.70
65064;DHT22;51654;51.452;6.644;2023-01-25T14:23:01;-0.80;73.60
65064;DHT22;51654;51.452;6.644;2023-01-25T14:25:29;-0.80;73.60
65064;DHT22;51654;51.452;6.644;2023-01-25T14:27:58;-0.80;73.70
65064;DHT22;51654;51.452;6.644;2023-01-25T14:30:29;-0.80;73.60
65064;DHT22;51654;51.452;6.644;2023-01-25T14:32:57;-0.80;73.50
65064;DHT22;51654;51.452;6.644;2023-01-25T14:35:31;-0.80;73.60
65064;DHT22;51654;51.452;6.644;2023-01-25T14:40:44;-0.70;73.70
65064;DHT22;51654;51.452;6.644;2023-01-25T14:43:11;-0.70;73.80
65064;DHT22;51654;51.452;6.644;2023-01-25T14:45:39;-0.70;73.90
65064;DHT22;51654;51.452;6.644;2023-01-25T14:48:31;-0.60;74.20
65064;DHT22;51654;51.452;6.644;2023-01-25T14:51:05;-0.60;74.30
65064;DHT22;51654;51.452;6.644;2023-01-25T14:53:38;-0.60;74.40
65064;DHT22;51654;51.452;6.644;2023-01-25T14:58:45;-0.60;73.90
65064;DHT22;51654;51.452;6.644;2023-01-25T15:01:25;-0.70;74.10
65064;DHT22;51654;51.452;6.644;2023-01-25T15:03:53;-0.70;74.00
65064;DHT22;51654;51.452;6.644;2023-01-25T15:06:20;-0.80;74.10
65064;DHT22;51654;51.452;6.644;2023-01-25T15:08:47;-0.80;74.00
65064;DHT22;51654;51.452;6.644;2023-01-25T15:11:24;-0.80;74.20
65064;DHT22;51654;51.452;6.644;2023-01-25T15:14:18;-0.70;74.50
65064;DHT22;51654;51.452;6.644;2023-01-25T15:16:45;-0.70;74.30
65064;DHT22;51654;51.452;6.644;2023-01-25T15:19:22;-0.70;74.30
65064;DHT22;51654;51.452;6.644;2023-01-25T15:21:49;-0.80;74.30
65064;DHT22;51654;51.452;6.644;2023-01-25T15:24:16;-0.70;74.30
65064;DHT22;51654;51.452;6.644;2023-01-25T15:26:47;-0.70;74.40
65064;DHT22;51654;51.452;6.644;2023-01-25T15:29:15;-0.70;74.40
65064;DHT22;51654;51.452;6.644;2023-01-25T15:31:42;-0.70;74.40
65064;DHT22;51654;51.452;6.644;2023-01-25T15:34:11;-0.70;74.30
65064;DHT22;51654;51.452;6.644;2023-01-25T15:36:39;-0.70;74.20
65064;DHT22;51654;51.452;6.644;2023-01-25T15:39:10;-0.70;74.30
65064;DHT22;51654;51.452;6.644;2023-01-25T15:41:37;-0.60;74.60
65064;DHT22;51654;51.452;6.644;2023-01-25T15:44:04;-0.60;74.70
65064;DHT22;51654;51.452;6.644;2023-01-25T15:46:32;-0.60;74.80
65064;DHT22;51654;51.452;6.644;2023-01-25T15:48:59;-0.60;74.70
65064;DHT22;51654;51.452;6.644;2023-01-25T15:51:26;-0.60;74.60
65064;DHT22;51654;51.452;6.644;2023-01-25T15:53:54;-0.60;74.60
65064;DHT22;51654;51.452;6.644;2023-01-25T15:56:22;-0.60;74.60
65064;DHT22;51654;51.452;6.644;2023-01-25T15:58:50;-0.60;74.70
65064;DHT22;51654;51.452;6.644;2023-01-25T16:01:17;-0.60;74.90
65064;DHT22;51654;51.452;6.644;2023-01-25T16:03:44;-0.60;75.00
65064;DHT22;51654;51.452;6.644;2023-01-25T16:08:41;-0.60;75.00
65064;DHT22;51654;51.452;6.644;2023-01-25T16:11:08;-0.60;75.00
65064;DHT22;51654;51.452;6.644;2023-01-25T16:13:35;-0.60;75.10
65064;DHT22;51654;51.452;6.644;2023-01-25T16:16:02;-0.60;75.20
65064;DHT22;51654;51.452;6.644;2023-01-25T16:18:29;-0.50;75.30
65064;DHT22;51654;51.452;6.644;2023-01-25T16:20:55;-0.50;75.60
65064;DHT22;51654;51.452;6.644;2023-01-25T16:23:22;-0.40;76.00
65064;DHT22;51654;51.452;6.644;2023-01-25T16:25:49;-0.40;75.70
65064;DHT22;51654;51.452;6.644;2023-01-25T16:28:16;-0.50;75.50
65064;DHT22;51654;51.452;6.644;2023-01-25T16:30:43;-0.50;75.30
65064;DHT22;51654;51.452;6.644;2023-01-25T16:33:11;-0.50;74.90
65064;DHT22;51654;51.452;6.644;2023-01-25T16:35:38;-0.60;74.80
65064;DHT22;51654;51.452;6.644;2023-01-25T16:38:04;-0.70;74.80
65064;DHT22;51654;51.452;6.644;2023-01-25T16:40:32;-0.70;74.70
65064;DHT22;51654;51.452;6.644;2023-01-25T16:43:02;-0.80;74.80
65064;DHT22;51654;51.452;6.644;2023-01-25T16:45:29;-0.70;74.90
65064;DHT22;51654;51.452;6.644;2023-01-25T16:47:57;-0.70;75.00
65064;DHT22;51654;51.452;6.644;2023-01-25T16:50:23;-0.70;75.10
65064;DHT22;51654;51.452;6.644;2023-01-25T16:52:50;-0.70;75.00
65064;DHT22;51654;51.452;6.644;2023-01-25T16:55:17;-0.70;74.90
65064;DHT22;51654;51.452;6.644;2023-01-25T16:57:47;-0.70;75.00
65064;DHT22;51654;51.452;6.644;2023-01-25T17:00:15;-0.70;74.90
65064;DHT22;51654;51.452;6.644;2023-01-25T17:02:42;-0.70;74.90
65064;DHT22;51654;51.452;6.644;2023-01-25T17:05:24;-0.70;74.80
65064;DHT22;51654;51.452;6.644;2023-01-25T17:07:52;-0.70;74.80
65064;DHT22;51654;51.452;6.644;2023-01-25T17:10:19;-0.70;74.80
65064;DHT22;51654;51.452;6.644;2023-01-25T17:12:46;-0.80;74.40
65064;DHT22;51654;51.452;6.644;2023-01-25T17:15:13;-0.80;74.20
65064;DHT22;51654;51.452;6.644;2023-01-25T17:17:40;-0.90;74.10
65064;DHT22;51654;51.452;6.644;2023-01-25T17:20:07;-1.00;74.30
65064;DHT22;51654;51.452;6.644;2023-01-25T17:22:34;-1.10;74.70
65064;DHT22;51654;51.452;6.644;2023-01-25T17:25:06;-1.00;75.00
65064;DHT22;51654;51.452;6.644;2023-01-25T17:27:32;-1.00;74.90
65064;DHT22;51654;51.452;6.644;2023-01-25T17:29:59;-1.00;75.00
65064;DHT22;51654;51.452;6.644;2023-01-25T17:32:26;-0.90;75.00
65064;DHT22;51654;51.452;6.644;2023-01-25T17:34:54;-0.90;74.90
65064;DHT22;51654;51.452;6.644;2023-01-25T17:37:24;-0.90;74.90
65064;DHT22;51654;51.452;6.644;2023-01-25T17:39:51;-0.90;74.70
65064;DHT22;51654;51.452;6.644;2023-01-25T17:42:18;-0.90;74.60
65064;DHT22;51654;51.452;6.644;2023-01-25T17:44:44;-0.90;74.60
65064;DHT22;51654;51.452;6.644;2023-01-25T17:47:11;-0.90;74.40
65064;DHT22;51654;51.452;6.644;2023-01-25T17:49:39;-0.90;74.10
65064;DHT22;51654;51.452;6.644;2023-01-25T17:52:05;-0.90;74.00
65064;DHT22;51654;51.452;6.644;2023-01-25T17:54:32;-1.00;74.00
65064;DHT22;51654;51.452;6.644;2023-01-25T17:57:01;-1.10;74.00
65064;DHT22;51654;51.452;6.644;2023-01-25T17:59:28;-1.00;74.00
65064;DHT22;51654;51.452;6.644;2023-01-25T18:01:55;-1.00;73.90
65064;DHT22;51654;51.452;6.644;2023-01-25T18:04:22;-1.10;73.90
65064;DHT22;51654;51.452;6.644;2023-01-25T18:06:48;-1.10;73.80
65064;DHT22;51654;51.452;6.644;2023-01-25T18:09:15;-1.10;73.80
65064;DHT22;51654;51.452;6.644;2023-01-25T18:11:42;-1.10;73.80
65064;DHT22;51654;51.452;6.644;2023-01-25T18:14:10;-1.10;73.70
65064;DHT22;51654;51.452;6.644;2023-01-25T18:16:38;-1.10;73.80
65064;DHT22;51654;51.452;6.644;2023-01-25T18:19:06;-1.20;73.80
65064;DHT22;51654;51.452;6.644;2023-01-25T18:21:33;-1.20;73.80
65064;DHT22;51654;51.452;6.644;2023-01-25T18:24:02;-1.20;73.80
65064;DHT22;51654;51.452;6.644;2023-01-25T18:26:30;-1.20;73.80
65064;DHT22;51654;51.452;6.644;2023-01-25T18:29:01;-1.30;73.80
65064;DHT22;51654;51.452;6.644;2023-01-25T18:31:29;-1.30;73.80
65064;DHT22;51654;51.452;6.644;2023-01-25T18:33:56;-1.40;73.80
65064;DHT22;51654;51.452;6.644;2023-01-25T18:36:23;-1.50;74.00
65064;DHT22;51654;51.452;6.644;2023-01-25T18:38:50;-1.50;74.00
65064;DHT22;51654;51.452;6.644;2023-01-25T18:41:18;-1.60;73.80
65064;DHT22;51654;51.452;6.644;2023-01-25T18:43:48;-1.70;73.90
65064;DHT22;51654;51.452;6.644;2023-01-25T18:46:15;-1.70;74.20
65064;DHT22;51654;51.452;6.644;2023-01-25T18:48:42;-1.70;74.40
65064;DHT22;51654;51.452;6.644;2023-01-25T18:51:12;-1.70;74.60
65064;DHT22;51654;51.452;6.644;2023-01-25T18:53:41;-1.70;74.60
65064;DHT22;51654;51.452;6.644;2023-01-25T18:56:13;-1.70;74.70
65064;DHT22;51654;51.452;6.644;2023-01-25T18:58:41;-1.70;74.50
65064;DHT22;51654;51.452;6.644;2023-01-25T19:01:17;-1.70;74.50
65064;DHT22;51654;51.452;6.644;2023-01-25T19:03:45;-1.80;74.70
65064;DHT22;51654;51.452;6.644;2023-01-25T19:06:13;-1.80;74.60
65064;DHT22;51654;51.452;6.644;2023-01-25T19:08:40;-1.80;74.70
65064;DHT22;51654;51.452;6.644;2023-01-25T19:11:12;-1.90;74.90
65064;DHT22;51654;51.452;6.644;2023-01-25T19:13:40;-1.90;75.10
65064;DHT22;51654;51.452;6.644;2023-01-25T19:16:13;-1.80;75.20
65064;DHT22;51654;51.452;6.644;2023-01-25T19:18:42;-1.80;75.20
65064;DHT22;51654;51.452;6.644;2023-01-25T19:21:14;-1.80;75.10
65064;DHT22;51654;51.452;6.644;2023-01-25T19:23:41;-1.80;74.90
65064;DHT22;51654;51.452;6.644;2023-01-25T19:26:11;-1.80;74.80
65064;DHT22;51654;51.452;6.644;2023-01-25T19:28:39;-1.80;75.00
65064;DHT22;51654;51.452;6.644;2023-01-25T19:31:23;-1.90;75.20
65064;DHT22;51654;51.452;6.644;2023-01-25T19:33:55;-2.00;75.30
65064;DHT22;51654;51.452;6.644;2023-01-25T19:36:22;-2.10;75.40
65064;DHT22;51654;51.452;6.644;2023-01-25T19:38:49;-2.10;75.50
65064;DHT22;51654;51.452;6.644;2023-01-25T19:41:21;-2.20;75.60
65064;DHT22;51654;51.452;6.644;2023-01-25T19:43:59;-2.10;75.80
65064;DHT22;51654;51.452;6.644;2023-01-25T19:46:28;-2.10;75.90
65064;DHT22;51654;51.452;6.644;2023-01-25T19:48:56;-2.10;75.90
65064;DHT22;51654;51.452;6.644;2023-01-25T19:51:26;-2.10;76.00
65064;DHT22;51654;51.452;6.644;2023-01-25T19:54:02;-2.10;75.90
65064;DHT22;51654;51.452;6.644;2023-01-25T19:56:31;-2.20;76.10
65064;DHT22;51654;51.452;6.644;2023-01-25T19:59:01;-2.20;76.50
65064;DHT22;51654;51.452;6.644;2023-01-25T20:01:29;-2.10;76.60
65064;DHT22;51654;51.452;6.644;2023-01-25T20:03:57;-2.10;76.50
65064;DHT22;51654;51.452;6.644;2023-01-25T20:06:25;-2.10;76.50
65064;DHT22;51654;51.452;6.644;2023-01-25T20:08:52;-2.20;76.50
65064;DHT22;51654;51.452;6.644;2023-01-25T20:11:20;-2.20;76.60
65064;DHT22;51654;51.452;6.644;2023-01-25T20:13:50;-2.20;76.70
65064;DHT22;51654;51.452;6.644;2023-01-25T20:16:17;-2.20;76.70
65064;DHT22;51654;51.452;6.644;2023-01-25T20:18:45;-2.20;76.60
65064;DHT22;51654;51.452;6.644;2023-01-25T20:21:18;-2.20;76.80
65064;DHT22;51654;51.452;6.644;2023-01-25T20:23:48;-2.20;76.70
65064;DHT22;51654;51.452;6.644;2023-01-25T20:26:16;-2.20;76.80
65064;DHT22;51654;51.452;6.644;2023-01-25T20:28:47;-2.20;76.90
65064;DHT22;51654;51.452;6.644;2023-01-25T20:31:30;-2.20;77.00
65064;DHT22;51654;51.452;6.644;2023-01-25T20:34:05;-2.20;76.80
65064;DHT22;51654;51.452;6.644;2023-01-25T20:36:33;-2.20;77.00
65064;DHT22;51654;51.452;6.644;2023-01-25T20:39:04;-2.20;76.70
65064;DHT22;51654;51.452;6.644;2023-01-25T20:41:31;-2.20;76.80
65064;DHT22;51654;51.452;6.644;2023-01-25T20:44:00;-2.20;77.00
65064;DHT22;51654;51.452;6.644;2023-01-25T20:46:28;-2.20;77.00
65064;DHT22;51654;51.452;6.644;2023-01-25T20:49:00;-2.10;76.90
65064;DHT22;51654;51.452;6.644;2023-01-25T20:51:27;-2.20;76.80
65064;DHT22;51654;51.452;6.644;2023-01-25T20:53:55;-2.20;76.70
65064;DHT22;51654;51.452;6.644;2023-01-25T20:56:22;-2.20;76.80
65064;DHT22;51654;51.452;6.644;2023-01-25T20:58:49;-2.20;76.70
65064;DHT22;51654;51.452;6.644;2023-01-25T21:01:19;-2.20;76.80
65064;DHT22;51654;51.452;6.644;2023-01-25T21:03:47;-2.10;76.80
65064;DHT22;51654;51.452;6.644;2023-01-25T21:06:15;-2.10;76.80
65064;DHT22;51654;51.452;6.644;2023-01-25T21:08:43;-2.10;76.70
65064;DHT22;51654;51.452;6.644;2023-01-25T21:11:10;-2.10;76.80
65064;DHT22;51654;51.452;6.644;2023-01-25T21:13:37;-2.10;76.80
65064;DHT22;51654;51.452;6.644;2023-01-25T21:16:10;-2.10;77.00
65064;DHT22;51654;51.452;6.644;2023-01-25T21:18:42;-2.10;76.90
65064;DHT22;51654;51.452;6.644;2023-01-25T21:21:14;-2.00;76.80
65064;DHT22;51654;51.452;6.644;2023-01-25T21:23:43;-2.00;76.80
65064;DHT22;51654;51.452;6.644;2023-01-25T21:26:16;-2.00;76.80
65064;DHT22;51654;51.452;6.644;2023-01-25T21:28:43;-2.00;76.90
65064;DHT22;51654;51.452;6.644;2023-01-25T21:31:16;-2.00;76.90
65064;DHT22;51654;51.452;6.644;2023-01-25T21:33:43;-2.00;76.70
65064;DHT22;51654;51.452;6.644;2023-01-25T21:36:11;-2.00;76.60
65064;DHT22;51654;51.452;6.644;2023-01-25T21:38:44;-2.00;76.70
65064;DHT22;51654;51.452;6.644;2023-01-25T21:41:21;-2.00;76.60
65064;DHT22;51654;51.452;6.644;2023-01-25T21:43:54;-2.00;76.60
65064;DHT22;51654;51.452;6.644;2023-01-25T21:46:40;-2.00;76.50
65064;DHT22;51654;51.452;6.644;2023-01-25T21:49:09;-2.10;76.40
65064;DHT22;51654;51.452;6.644;2023-01-25T21:51:57;-2.10;76.40
65064;DHT22;51654;51.452;6.644;2023-01-25T21:54:32;-2.10;76.40
65064;DHT22;51654;51.452;6.644;2023-01-25T21:57:01;-2.10;76.40
65064;DHT22;51654;51.452;6.644;2023-01-25T21:59:30;-2.20;76.20
65064;DHT22;51654;51.452;6.644;2023-01-25T22:01:56;-2.20;76.30
65064;DHT22;51654;51.452;6.644;2023-01-25T22:04:24;-2.30;76.30